createdAt,value
2022-12-27T00:00:10.492Z,10.30
2022-12-27T00:02:58.303Z,12.10
2022-12-27T00:05:26.309Z,11.50
2022-12-27T00:07:56.216Z,10.60
2022-12-27T00:10:24.275Z,12.20
2022-12-27T00:12:54.308Z,10.00
2022-12-27T00:15:22.120Z,13.50
2022-12-27T00:17:50.786Z,11.20
2022-12-27T00:20:18.887Z,10.60
2022-12-27T00:22:46.551Z,13.20
2022-12-27T00:25:14.192Z,12.00
2022-12-27T00:27:41.946Z,11.00
2022-12-27T00:30:10.075Z,11.70
2022-12-27T00:32:37.758Z,8.60
2022-12-27T00:35:06.007Z,8.90
2022-12-27T00:37:33.694Z,8.20
2022-12-27T00:40:01.366Z,7.80
2022-12-27T00:42:29.039Z,7.80
2022-12-27T00:44:56.781Z,8.70
2022-12-27T00:47:24.420Z,9.70
2022-12-27T00:49:52.099Z,8.80
2022-12-27T00:52:19.750Z,8.40
2022-12-27T00:54:47.459Z,11.40
2022-12-27T00:57:15.199Z,11.10
2022-12-27T00:59:42.848Z,10.70
2022-12-27T01:02:10.504Z,10.70
2022-12-27T01:04:38.193Z,10.60
2022-12-27T01:07:05.907Z,10.30
2022-12-27T01:09:33.573Z,12.50
2022-12-27T01:12:01.252Z,11.70
2022-12-27T01:14:28.907Z,12.60
2022-12-27T01:16:56.629Z,9.90
2022-12-27T01:19:24.378Z,12.00
2022-12-27T01:21:52.024Z,11.00
2022-12-27T01:24:19.823Z,12.10
2022-12-27T01:26:47.482Z,8.40
2022-12-27T01:29:15.283Z,12.50
2022-12-27T01:31:43.012Z,11.30
2022-12-27T01:34:10.981Z,12.10
2022-12-27T01:36:38.657Z,11.00
2022-12-27T01:39:08.407Z,11.80
2022-12-27T01:41:54.897Z,13.40
2022-12-27T01:44:39.069Z,10.60
2022-12-27T01:47:26.380Z,9.80
2022-12-27T01:50:24.448Z,11.20
2022-12-27T01:53:14.431Z,23.30
2022-12-27T01:55:58.058Z,20.20
2022-12-27T01:58:30.335Z,13.20
2022-12-27T02:00:59.047Z,10.10
2022-12-27T02:03:31.243Z,9.10
2022-12-27T02:06:01.569Z,12.30
2022-12-27T02:08:45.156Z,12.70
2022-12-27T02:11:13.876Z,8.20
2022-12-27T02:13:44.738Z,10.70
2022-12-27T02:16:15.896Z,8.50
2022-12-27T02:18:45.024Z,12.00
2022-12-27T02:21:29.718Z,7.50
2022-12-27T02:24:29.255Z,9.20
2022-12-27T02:27:28.863Z,8.50
2022-12-27T02:30:07.087Z,9.50
2022-12-27T02:32:42.139Z,9.70
2022-12-27T02:35:16.839Z,8.60
2022-12-27T02:37:56.574Z,8.40
2022-12-27T02:40:42.241Z,8.50
2022-12-27T02:43:26.596Z,7.90
2022-12-27T02:46:28.721Z,11.80
2022-12-27T02:49:14.752Z,10.00
2022-12-27T02:52:27.973Z,8.90
2022-12-27T02:55:17.685Z,11.50
2022-12-27T02:57:52.920Z,7.10
2022-12-27T03:00:39.900Z,15.00
2022-12-27T03:03:29.712Z,12.30
2022-12-27T03:06:38.606Z,8.90
2022-12-27T03:09:46.214Z,11.00
2022-12-27T03:12:51.958Z,10.50
2022-12-27T03:15:57.574Z,10.20
2022-12-27T03:18:47.606Z,10.90
2022-12-27T03:21:49.063Z,12.90
2022-12-27T03:24:35.628Z,12.50
2022-12-27T03:27:10.696Z,7.70
2022-12-27T03:29:53.431Z,11.20
2022-12-27T03:32:39.983Z,13.20
2022-12-27T03:35:17.401Z,10.70
2022-12-27T03:38:08.474Z,8.70
2022-12-27T03:41:17.708Z,10.10
2022-12-27T03:43:45.591Z,5.10
2022-12-27T03:46:42.154Z,12.10
2022-12-27T03:49:30.988Z,8.90
2022-12-27T03:52:20.164Z,13.60
2022-12-27T03:54:50.881Z,15.80
2022-12-27T03:57:24.276Z,11.00
2022-12-27T03:59:52.444Z,14.20
2022-12-27T04:02:20.473Z,13.60
2022-12-27T04:04:48.723Z,10.10
2022-12-27T04:07:16.981Z,9.20
2022-12-27T04:10:00.736Z,11.00
2022-12-27T04:12:43.427Z,12.60
2022-12-27T04:15:27.264Z,12.10
2022-12-27T04:18:10.975Z,10.40
2022-12-27T04:20:54.927Z,11.80
2022-12-27T04:23:39.156Z,9.40
2022-12-27T04:26:22.508Z,8.20
2022-12-27T04:29:06.218Z,11.40
2022-12-27T04:31:49.984Z,16.50
2022-12-27T04:34:33.593Z,11.50
2022-12-27T04:37:01.386Z,17.30
2022-12-27T04:39:29.077Z,12.20
2022-12-27T04:42:12.687Z,11.40
2022-12-27T04:44:56.268Z,8.20
2022-12-27T04:47:39.442Z,11.70
2022-12-27T04:50:47.937Z,9.20
2022-12-27T04:53:34.972Z,7.60
2022-12-27T04:56:03.917Z,8.90
2022-12-27T04:58:32.124Z,9.90
2022-12-27T05:01:19.015Z,15.30
2022-12-27T05:03:49.318Z,11.40
2022-12-27T05:06:17.937Z,12.30
2022-12-27T05:09:00.704Z,13.80
2022-12-27T05:11:44.361Z,12.20
2022-12-27T05:14:15.054Z,13.30
2022-12-27T05:16:44.605Z,17.20
2022-12-27T05:19:14.656Z,13.20
2022-12-27T05:22:04.812Z,14.30
2022-12-27T05:24:48.860Z,15.80
2022-12-27T05:27:17.379Z,13.80
2022-12-27T05:29:46.254Z,12.60
2022-12-27T05:32:14.120Z,16.70
2022-12-27T05:34:42.052Z,11.80
2022-12-27T05:37:09.784Z,12.20
2022-12-27T05:39:37.447Z,16.00
2022-12-27T05:42:05.272Z,12.60
2022-12-27T05:44:33.161Z,12.30
2022-12-27T05:47:00.925Z,19.40
2022-12-27T05:49:28.733Z,12.30
2022-12-27T05:51:56.406Z,7.30
2022-12-27T05:54:24.115Z,14.30
2022-12-27T05:56:51.798Z,20.60
2022-12-27T05:59:19.475Z,15.00
2022-12-27T06:01:47.434Z,16.10
2022-12-27T06:04:15.261Z,14.10
2022-12-27T06:06:43.021Z,25.70
2022-12-27T06:09:10.847Z,20.10
2022-12-27T06:11:38.669Z,24.60
2022-12-27T06:14:06.369Z,29.10
2022-12-27T06:16:34.113Z,32.20
2022-12-27T06:19:01.861Z,15.50
2022-12-27T06:21:29.612Z,16.70
2022-12-27T06:23:57.393Z,17.00
2022-12-27T06:26:28.679Z,21.80
2022-12-27T06:28:58.271Z,12.50
2022-12-27T06:31:27.321Z,21.40
2022-12-27T06:33:56.351Z,17.00
2022-12-27T06:36:32.603Z,27.90
2022-12-27T06:39:00.925Z,21.40
2022-12-27T06:41:28.735Z,14.10
2022-12-27T06:43:58.295Z,12.70
2022-12-27T06:46:26.110Z,12.80
2022-12-27T06:48:53.830Z,36.50
2022-12-27T06:51:22.008Z,44.20
2022-12-27T06:53:50.048Z,52.10
2022-12-27T06:56:20.732Z,29.80
2022-12-27T06:58:50.181Z,17.30
2022-12-27T07:01:25.009Z,19.50
2022-12-27T07:03:55.111Z,15.60
2022-12-27T07:06:24.143Z,20.30
2022-12-27T07:08:52.715Z,16.50
2022-12-27T07:11:21.034Z,18.50
2022-12-27T07:13:51.471Z,13.90
2022-12-27T07:16:21.793Z,16.90
2022-12-27T07:18:50.347Z,15.10
2022-12-27T07:21:21.108Z,15.00
2022-12-27T07:23:49.939Z,15.50
2022-12-27T07:26:20.925Z,15.40
2022-12-27T07:28:49.296Z,15.10
2022-12-27T07:31:20.395Z,13.20
2022-12-27T07:33:48.253Z,14.60
2022-12-27T07:36:28.649Z,12.40
2022-12-27T07:38:56.345Z,24.70
2022-12-27T07:41:24.727Z,12.00
2022-12-27T07:43:52.890Z,12.00
2022-12-27T07:46:22.949Z,16.20
2022-12-27T07:48:53.005Z,26.10
2022-12-27T07:51:21.594Z,18.30
2022-12-27T07:53:50.591Z,12.00
2022-12-27T07:56:25.799Z,14.50
2022-12-27T07:58:59.212Z,19.50
2022-12-27T08:01:30.260Z,16.90
2022-12-27T08:03:57.996Z,28.80
2022-12-27T08:06:32.377Z,31.60
2022-12-27T08:09:03.489Z,17.00
2022-12-27T08:11:31.250Z,20.60
2022-12-27T08:13:59.036Z,33.60
2022-12-27T08:16:27.087Z,37.20
2022-12-27T08:18:54.979Z,42.30
2022-12-27T08:21:23.789Z,45.40
2022-12-27T08:23:51.761Z,34.90
2022-12-27T08:26:19.489Z,20.70
2022-12-27T08:28:47.235Z,24.20
2022-12-27T08:31:15.005Z,17.90
2022-12-27T08:33:42.711Z,22.20
2022-12-27T08:36:52.943Z,17.20
2022-12-27T08:39:00.606Z,18.20
2022-12-27T08:41:28.347Z,18.60
2022-12-27T08:43:56.015Z,20.50
2022-12-27T08:46:23.788Z,16.20
2022-12-27T08:48:51.649Z,25.20
2022-12-27T08:51:31.249Z,24.10
2022-12-27T08:54:01.383Z,17.80
2022-12-27T08:56:29.077Z,22.20
2022-12-27T08:58:56.767Z,25.40
2022-12-27T09:01:25.930Z,26.00
2022-12-27T09:03:53.925Z,26.90
2022-12-27T09:06:24.784Z,29.00
2022-12-27T09:08:54.489Z,23.20
2022-12-27T09:11:28.577Z,21.50
2022-12-27T09:13:59.385Z,22.50
2022-12-27T09:16:28.737Z,24.10
2022-12-27T09:18:58.660Z,18.60
2022-12-27T09:21:28.814Z,21.70
2022-12-27T09:23:56.502Z,23.10
2022-12-27T09:26:27.070Z,24.20
2022-12-27T09:28:56.205Z,23.40
2022-12-27T09:31:25.178Z,28.70
2022-12-27T09:33:54.093Z,20.10
2022-12-27T09:36:25.056Z,23.90
2022-12-27T09:38:54.206Z,31.40
2022-12-27T09:44:55.508Z,21.50
2022-12-27T09:48:01.203Z,27.40
2022-12-27T09:50:43.951Z,18.40
2022-12-27T09:53:22.641Z,18.50
2022-12-27T09:55:57.892Z,17.00
2022-12-27T09:58:42.667Z,15.20
2022-12-27T10:01:31.462Z,29.90
2022-12-27T10:04:00.223Z,23.30
2022-12-27T10:06:28.232Z,21.50
2022-12-27T10:09:14.927Z,22.90
2022-12-27T10:12:18.754Z,28.20
2022-12-27T10:15:19.878Z,16.90
2022-12-27T10:18:14.800Z,22.70
2022-12-27T10:21:13.697Z,20.80
2022-12-27T10:23:46.773Z,32.30
2022-12-27T10:26:18.991Z,17.00
2022-12-27T10:28:57.202Z,25.90
2022-12-27T10:31:26.989Z,18.50
2022-12-27T10:33:56.780Z,22.80
2022-12-27T10:36:27.398Z,22.40
2022-12-27T10:38:55.987Z,20.40
2022-12-27T10:41:33.762Z,21.00
2022-12-27T10:44:01.803Z,18.90
2022-12-27T10:46:33.680Z,19.00
2022-12-27T10:49:21.896Z,18.30
2022-12-27T10:51:52.504Z,21.30
2022-12-27T10:54:30.084Z,14.80
2022-12-27T10:57:18.495Z,20.00
2022-12-27T10:59:46.207Z,18.90
2022-12-27T11:02:19.653Z,17.80
2022-12-27T11:05:03.552Z,16.10
2022-12-27T11:07:39.442Z,21.50
2022-12-27T11:10:24.860Z,18.60
2022-12-27T11:13:17.692Z,27.00
2022-12-27T11:15:58.776Z,23.80
2022-12-27T11:18:26.941Z,21.10
2022-12-27T11:20:57.894Z,21.30
2022-12-27T11:23:36.236Z,14.20
2022-12-27T11:26:06.846Z,15.10
2022-12-27T11:28:38.412Z,12.70
2022-12-27T11:31:17.849Z,16.70
2022-12-27T11:33:50.427Z,43.60
2022-12-27T11:36:29.281Z,16.80
2022-12-27T11:38:58.233Z,13.00
2022-12-27T11:41:48.094Z,16.70
2022-12-27T11:44:34.093Z,14.80
2022-12-27T11:47:33.904Z,12.00
2022-12-27T11:50:23.950Z,14.10
2022-12-27T11:53:00.733Z,11.20
2022-12-27T11:55:33.734Z,11.50
2022-12-27T11:58:23.093Z,9.00
2022-12-27T12:01:30.100Z,13.80
2022-12-27T12:04:29.671Z,14.30
2022-12-27T12:07:29.026Z,27.60
2022-12-27T12:10:13.129Z,18.70
2022-12-27T12:13:02.899Z,18.60
2022-12-27T12:16:01.651Z,14.20
2022-12-27T12:19:01.419Z,15.00
2022-12-27T12:21:34.915Z,14.30
2022-12-27T12:24:20.035Z,17.60
2022-12-27T12:27:10.964Z,24.10
2022-12-27T12:30:00.530Z,20.00
2022-12-27T12:32:44.319Z,15.70
2022-12-27T12:35:50.579Z,16.50
2022-12-27T12:38:20.673Z,10.70
2022-12-27T12:41:05.846Z,14.90
2022-12-27T12:44:06.632Z,11.40
2022-12-27T12:46:39.108Z,11.40
2022-12-27T12:49:38.675Z,22.30
2022-12-27T12:52:35.057Z,14.40
2022-12-27T12:55:30.935Z,24.20
2022-12-27T12:58:05.727Z,18.60
2022-12-27T13:00:52.425Z,26.90
2022-12-27T13:03:39.073Z,48.90
2022-12-27T13:06:27.430Z,17.20
2022-12-27T13:09:10.080Z,48.90
2022-12-27T13:11:48.581Z,25.70
2022-12-27T13:14:45.484Z,22.40
2022-12-27T13:17:36.065Z,20.00
2022-12-27T13:20:15.193Z,25.90
2022-12-27T13:23:04.938Z,24.50
2022-12-27T13:25:35.711Z,34.20
2022-12-27T13:28:18.665Z,24.00
2022-12-27T13:30:57.630Z,35.30
2022-12-27T13:33:44.335Z,25.20
2022-12-27T13:36:27.903Z,29.20
2022-12-27T13:39:28.502Z,30.20
2022-12-27T13:41:59.097Z,21.10
2022-12-27T13:44:29.529Z,16.60
2022-12-27T13:47:29.033Z,21.00
2022-12-27T13:50:28.722Z,21.70
2022-12-27T13:53:00.050Z,33.60
2022-12-27T13:55:35.051Z,32.90
2022-12-27T13:58:27.394Z,28.00
2022-12-27T14:01:27.109Z,24.10
2022-12-27T14:04:14.806Z,33.10
2022-12-27T14:06:58.582Z,27.40
2022-12-27T14:09:56.216Z,28.40
2022-12-27T14:12:52.555Z,27.30
2022-12-27T14:15:35.542Z,26.20
2022-12-27T14:18:27.220Z,24.30
2022-12-27T14:21:10.840Z,23.70
2022-12-27T14:23:54.602Z,40.20
2022-12-27T14:26:42.389Z,29.30
2022-12-27T14:29:12.869Z,19.80
2022-12-27T14:31:59.458Z,35.20
2022-12-27T14:34:43.125Z,29.40
2022-12-27T14:37:19.851Z,20.70
2022-12-27T14:40:19.590Z,24.50
2022-12-27T14:43:03.300Z,24.20
2022-12-27T14:45:58.384Z,39.70
2022-12-27T14:48:35.691Z,31.10
2022-12-27T14:54:31.554Z,37.20
2022-12-27T14:57:13.590Z,21.10
2022-12-27T15:00:04.626Z,25.20
2022-12-27T15:02:49.228Z,29.50
2022-12-27T15:05:20.388Z,25.30
2022-12-27T15:08:04.032Z,33.30
2022-12-27T15:10:48.748Z,27.50
2022-12-27T15:13:27.845Z,45.90
2022-12-27T15:16:06.042Z,21.60
2022-12-27T15:18:47.857Z,26.30
2022-12-27T15:21:27.306Z,27.90
2022-12-27T15:24:14.838Z,37.50
2022-12-27T15:27:04.430Z,35.80
2022-12-27T15:30:07.791Z,33.90
2022-12-27T15:32:57.533Z,21.90
2022-12-27T15:35:48.365Z,28.70
2022-12-27T15:38:38.803Z,32.10
2022-12-27T15:41:06.542Z,38.00
2022-12-27T15:43:43.286Z,54.70
2022-12-27T15:46:18.105Z,41.90
2022-12-27T15:49:22.155Z,36.00
2022-12-27T15:52:21.889Z,29.30
2022-12-27T15:55:08.391Z,33.80
2022-12-27T15:57:52.059Z,32.80
2022-12-27T16:00:33.624Z,26.00
2022-12-27T16:03:23.528Z,34.40
2022-12-27T16:05:53.064Z,27.30
2022-12-27T16:08:26.117Z,28.50
2022-12-27T16:10:55.548Z,33.00
2022-12-27T16:13:23.226Z,33.60
2022-12-27T16:15:54.280Z,37.50
2022-12-27T16:18:22.851Z,23.90
2022-12-27T16:21:13.545Z,30.80
2022-12-27T16:23:46.875Z,33.10
2022-12-27T16:26:27.793Z,21.70
2022-12-27T16:29:00.327Z,28.20
2022-12-27T16:31:34.429Z,32.10
2022-12-27T16:34:21.161Z,29.60
2022-12-27T16:36:51.472Z,35.50
2022-12-27T16:39:38.114Z,23.70
2022-12-27T16:42:08.721Z,27.60
2022-12-27T16:45:03.026Z,24.40
2022-12-27T16:47:47.641Z,30.60
2022-12-27T16:50:41.186Z,26.80
2022-12-27T16:53:25.850Z,24.30
2022-12-27T16:55:59.471Z,31.80
2022-12-27T16:58:27.192Z,34.70
2022-12-27T17:00:57.322Z,26.80
2022-12-27T17:03:41.012Z,42.40
2022-12-27T17:06:32.576Z,35.10
2022-12-27T17:09:20.736Z,42.30
2022-12-27T17:11:48.386Z,24.60
2022-12-27T17:14:35.909Z,23.70
2022-12-27T17:17:10.719Z,31.30
2022-12-27T17:19:55.292Z,63.40
2022-12-27T17:22:32.105Z,127.60
2022-12-27T17:25:03.414Z,55.70
2022-12-27T17:28:02.680Z,74.90
2022-12-27T17:30:46.305Z,79.40
2022-12-27T17:33:40.032Z,67.10
2022-12-27T17:36:29.796Z,27.20
2022-12-27T17:39:13.832Z,26.90
2022-12-27T17:42:14.663Z,31.80
2022-12-27T17:45:06.257Z,33.50
2022-12-27T17:47:55.832Z,21.80
2022-12-27T17:50:26.367Z,34.70
2022-12-27T17:53:32.918Z,31.10
2022-12-27T17:56:37.339Z,24.50
2022-12-27T17:59:10.164Z,25.30
2022-12-27T18:01:50.613Z,33.20
2022-12-27T18:04:23.471Z,35.50
2022-12-27T18:07:08.784Z,35.20
2022-12-27T18:09:43.398Z,32.00
2022-12-27T18:12:37.026Z,47.50
2022-12-27T18:15:25.894Z,43.00
2022-12-27T18:18:03.834Z,39.80
2022-12-27T18:20:36.093Z,60.40
2022-12-27T18:23:03.757Z,81.70
2022-12-27T18:25:37.653Z,37.70
2022-12-27T18:28:20.063Z,50.20
2022-12-27T18:31:06.948Z,34.70
2022-12-27T18:33:40.237Z,35.80
2022-12-27T18:36:11.703Z,34.30
2022-12-27T18:38:43.813Z,41.90
2022-12-27T18:41:21.376Z,20.20
2022-12-27T18:43:52.865Z,25.00
2022-12-27T18:46:39.329Z,37.00
2022-12-27T18:49:07.273Z,16.60
2022-12-27T18:51:38.197Z,27.00
2022-12-27T18:54:27.964Z,27.80
2022-12-27T18:56:57.311Z,33.70
2022-12-27T18:59:28.985Z,28.70
2022-12-27T19:02:02.459Z,22.70
2022-12-27T19:04:32.639Z,73.50
2022-12-27T19:07:16.292Z,32.60
2022-12-27T19:10:02.113Z,31.20
2022-12-27T19:12:40.577Z,37.70
2022-12-27T19:15:18.019Z,42.40
2022-12-27T19:17:50.181Z,52.80
2022-12-27T19:20:25.013Z,71.60
2022-12-27T19:22:56.827Z,92.60
2022-12-27T19:25:26.901Z,60.40
2022-12-27T19:28:11.530Z,51.50
2022-12-27T19:30:47.304Z,25.10
2022-12-27T19:33:30.925Z,39.00
2022-12-27T19:36:00.489Z,29.90
2022-12-27T19:38:30.306Z,33.90
2022-12-27T19:41:03.544Z,29.60
2022-12-27T19:43:38.311Z,27.90
2022-12-27T19:46:06.605Z,75.40
2022-12-27T19:48:34.408Z,49.70
2022-12-27T19:51:02.148Z,54.20
2022-12-27T19:53:33.988Z,34.70
2022-12-27T19:56:02.974Z,25.20
2022-12-27T19:58:31.182Z,42.20
2022-12-27T20:00:59.061Z,36.20
2022-12-27T20:03:27.563Z,38.50
2022-12-27T20:06:14.531Z,37.20
2022-12-27T20:08:48.347Z,37.20
2022-12-27T20:11:22.135Z,37.10
2022-12-27T20:13:50.559Z,61.80
2022-12-27T20:16:19.556Z,40.00
2022-12-27T20:18:47.426Z,44.30
2022-12-27T20:21:17.681Z,58.60
2022-12-27T20:23:46.964Z,46.60
2022-12-27T20:26:19.876Z,46.60
2022-12-27T20:28:48.200Z,20.30
2022-12-27T20:31:19.335Z,28.80
2022-12-27T20:33:54.558Z,28.70
2022-12-27T20:36:24.784Z,42.10
2022-12-27T20:38:52.497Z,32.80
2022-12-27T20:41:22.791Z,29.50
2022-12-27T20:43:58.363Z,51.30
2022-12-27T20:46:27.074Z,40.80
2022-12-27T20:48:56.315Z,63.50
2022-12-27T20:51:27.311Z,43.10
2022-12-27T20:53:57.501Z,102.50
2022-12-27T20:56:25.830Z,100.20
2022-12-27T20:58:54.177Z,41.80
2022-12-27T21:01:24.451Z,32.50
2022-12-27T21:03:54.233Z,39.40
2022-12-27T21:06:24.288Z,38.80
2022-12-27T21:08:56.788Z,38.10
2022-12-27T21:11:33.537Z,56.60
2022-12-27T21:14:04.137Z,72.90
2022-12-27T21:16:34.623Z,28.70
2022-12-27T21:19:04.898Z,28.40
2022-12-27T21:21:35.290Z,26.00
2022-12-27T21:24:03.895Z,53.90
2022-12-27T21:26:37.892Z,43.80
2022-12-27T21:29:09.093Z,32.00
2022-12-27T21:31:37.904Z,33.30
2022-12-27T21:34:07.141Z,32.80
2022-12-27T21:36:35.880Z,46.90
2022-12-27T21:39:04.720Z,28.20
2022-12-27T21:41:35.416Z,41.30
2022-12-27T21:44:03.875Z,67.80
2022-12-27T21:46:34.596Z,22.30
2022-12-27T21:49:04.892Z,45.50
2022-12-27T21:51:34.276Z,47.90
2022-12-27T21:54:02.825Z,51.90
2022-12-27T21:56:30.926Z,49.50
2022-12-27T21:59:00.128Z,79.40
2022-12-27T22:01:30.482Z,36.70
2022-12-27T22:04:17.964Z,77.10
2022-12-27T22:06:47.414Z,51.60
2022-12-27T22:09:16.092Z,55.50
2022-12-27T22:11:43.855Z,37.80
2022-12-27T22:14:11.646Z,24.60
2022-12-27T22:16:39.906Z,34.50
2022-12-27T22:19:12.575Z,56.00
2022-12-27T22:21:41.887Z,104.80
2022-12-27T22:24:13.020Z,26.70
2022-12-27T22:26:42.869Z,63.00
2022-12-27T22:29:11.972Z,45.90
2022-12-27T22:31:40.289Z,75.30
2022-12-27T22:34:08.067Z,67.50
2022-12-27T22:36:36.307Z,31.30
2022-12-27T22:39:04.476Z,27.20
2022-12-27T22:41:35.022Z,24.60
2022-12-27T22:44:06.098Z,25.80
2022-12-27T22:49:21.987Z,22.30
2022-12-27T22:51:49.827Z,26.50
2022-12-27T22:54:17.557Z,88.50
2022-12-27T22:56:45.251Z,49.00
2022-12-27T22:59:16.134Z,65.50
2022-12-27T23:01:45.350Z,101.60
2022-12-27T23:04:13.959Z,49.70
2022-12-27T23:06:42.249Z,39.80
2022-12-27T23:09:10.523Z,34.80
2022-12-27T23:11:40.814Z,38.40
2022-12-27T23:14:15.038Z,40.60
2022-12-27T23:16:45.596Z,45.20
2022-12-27T23:19:15.677Z,26.90
2022-12-27T23:21:44.464Z,42.30
2022-12-27T23:24:12.653Z,44.10
2022-12-27T23:26:41.869Z,47.40
2022-12-27T23:29:12.762Z,29.10
2022-12-27T23:31:54.633Z,48.20
2022-12-27T23:34:28.338Z,30.50
2022-12-27T23:37:00.049Z,33.70
2022-12-27T23:39:28.524Z,40.70
2022-12-27T23:41:56.495Z,42.00
2022-12-27T23:44:34.491Z,52.00
2022-12-27T23:47:05.376Z,15.70
2022-12-27T23:49:34.349Z,16.80
2022-12-27T23:52:02.142Z,15.80
2022-12-27T23:54:29.878Z,17.90
2022-12-27T23:56:57.640Z,17.60
2022-12-27T23:59:25.311Z,19.20
